sensor_id;sensor_type;location;lat;lon;timestamp;pressure;altitude;pressure_sealevel;temperature;humidity
43298;BME280;28892;55.640;37.532;2023-03-23T00:01:03;98520.22;;;7.31;51.49
43298;BME280;28892;55.640;37.532;2023-03-23T00:03:30;98518.06;;;7.35;51.44
43298;BME280;28892;55.640;37.532;2023-03-23T00:06:00;98509.88;;;7.45;51.47
43298;BME280;28892;55.640;37.532;2023-03-23T00:08:39;98511.88;;;7.43;51.25
43298;BME280;28892;55.640;37.532;2023-03-23T00:11:15;98509.88;;;7.45;51.40
43298;BME280;28892;55.640;37.532;2023-03-23T00:13:44;98502.59;;;7.47;51.22
43298;BME280;28892;55.640;37.532;2023-03-23T00:16:12;98498.53;;;7.44;50.95
43298;BME280;28892;55.640;37.532;2023-03-23T00:18:47;98514.94;;;7.85;50.75
43298;BME280;28892;55.640;37.532;2023-03-23T00:21:15;98515.44;;;7.11;52.23
43298;BME280;28892;55.640;37.532;2023-03-23T00:23:41;98505.56;;;6.90;52.76
43298;BME280;28892;55.640;37.532;2023-03-23T00:26:10;98505.56;;;6.90;52.86
43298;BME280;28892;55.640;37.532;2023-03-23T00:28:36;98508.69;;;7.09;52.44
43298;BME280;28892;55.640;37.532;2023-03-23T00:31:06;98514.66;;;7.26;51.89
43298;BME280;28892;55.640;37.532;2023-03-23T00:33:36;98511.94;;;7.34;52.04
43298;BME280;28892;55.640;37.532;2023-03-23T00:36:08;98511.00;;;6.89;53.01
43298;BME280;28892;55.640;37.532;2023-03-23T00:38:35;98490.00;;;6.49;53.92
43298;BME280;28892;55.640;37.532;2023-03-23T00:41:01;98496.78;;;6.66;53.62
43298;BME280;28892;55.640;37.532;2023-03-23T00:43:31;98505.09;;;6.87;52.96
43298;BME280;28892;55.640;37.532;2023-03-23T00:45:58;98502.19;;;6.96;52.72
43298;BME280;28892;55.640;37.532;2023-03-23T00:48:28;98488.13;;;7.04;52.49
43298;BME280;28892;55.640;37.532;2023-03-23T00:50:55;98487.59;;;7.09;52.49
43298;BME280;28892;55.640;37.532;2023-03-23T00:53:22;98484.09;;;7.17;52.05
43298;BME280;28892;55.640;37.532;2023-03-23T00:55:48;98479.81;;;7.16;51.91
43298;BME280;28892;55.640;37.532;2023-03-23T00:58:15;98473.25;;;7.11;52.23
43298;BME280;28892;55.640;37.532;2023-03-23T01:00:42;98480.66;;;6.69;53.38
43298;BME280;28892;55.640;37.532;2023-03-23T01:03:09;98482.56;;;6.99;52.73
43298;BME280;28892;55.640;37.532;2023-03-23T01:05:39;98475.13;;;7.03;52.66
43298;BME280;28892;55.640;37.532;2023-03-23T01:08:05;98481.25;;;7.18;52.53
43298;BME280;28892;55.640;37.532;2023-03-23T01:10:32;98479.44;;;7.19;52.35
43298;BME280;28892;55.640;37.532;2023-03-23T01:13:01;98480.19;;;7.27;52.09
43298;BME280;28892;55.640;37.532;2023-03-23T01:15:28;98475.50;;;7.15;52.43
43298;BME280;28892;55.640;37.532;2023-03-23T01:17:55;98476.56;;;6.90;52.93
43298;BME280;28892;55.640;37.532;2023-03-23T01:20:21;98479.25;;;7.05;52.63
43298;BME280;28892;55.640;37.532;2023-03-23T01:22:46;98491.16;;;7.16;52.62
43298;BME280;28892;55.640;37.532;2023-03-23T01:25:13;98479.72;;;7.24;52.44
43298;BME280;28892;55.640;37.532;2023-03-23T01:27:39;98473.44;;;7.25;52.16
43298;BME280;28892;55.640;37.532;2023-03-23T01:30:07;98464.84;;;7.08;52.83
43298;BME280;28892;55.640;37.532;2023-03-23T01:32:36;98461.59;;;7.06;52.71
43298;BME280;28892;55.640;37.532;2023-03-23T01:35:02;98465.69;;;7.08;52.85
43298;BME280;28892;55.640;37.532;2023-03-23T01:37:29;98465.06;;;7.06;52.93
43298;BME280;28892;55.640;37.532;2023-03-23T01:39:56;98449.34;;;7.13;52.73
43298;BME280;28892;55.640;37.532;2023-03-23T01:42:25;98446.16;;;7.18;52.68
43298;BME280;28892;55.640;37.532;2023-03-23T01:47:20;98449.06;;;7.23;52.58
43298;BME280;28892;55.640;37.532;2023-03-23T01:49:50;98439.88;;;7.19;52.99
43298;BME280;28892;55.640;37.532;2023-03-23T01:52:23;98433.03;;;7.09;52.93
43298;BME280;28892;55.640;37.532;2023-03-23T01:54:58;98435.00;;;6.92;53.57
43298;BME280;28892;55.640;37.532;2023-03-23T01:57:25;98444.22;;;7.11;53.35
43298;BME280;28892;55.640;37.532;2023-03-23T01:59:55;98444.28;;;7.03;53.31
43298;BME280;28892;55.640;37.532;2023-03-23T02:02:27;98437.59;;;6.77;54.04
43298;BME280;28892;55.640;37.532;2023-03-23T02:05:02;98426.78;;;6.72;54.57
43298;BME280;28892;55.640;37.532;2023-03-23T02:07:32;98424.25;;;6.79;54.06
43298;BME280;28892;55.640;37.532;2023-03-23T02:10:00;98429.53;;;6.79;54.16
43298;BME280;28892;55.640;37.532;2023-03-23T02:12:28;98422.34;;;6.88;53.69
43298;BME280;28892;55.640;37.532;2023-03-23T02:14:55;98424.63;;;6.91;53.67
43298;BME280;28892;55.640;37.532;2023-03-23T02:17:33;98432.75;;;7.04;53.81
43298;BME280;28892;55.640;37.532;2023-03-23T02:20:23;98418.06;;;7.10;53.56
43298;BME280;28892;55.640;37.532;2023-03-23T02:31:28;98443.53;;;7.18;53.55
43298;BME280;28892;55.640;37.532;2023-03-23T02:37:08;98435.63;;;7.18;53.49
43298;BME280;28892;55.640;37.532;2023-03-23T02:39:34;98434.53;;;6.89;54.05
43298;BME280;28892;55.640;37.532;2023-03-23T02:42:07;98430.97;;;6.81;54.19
43298;BME280;28892;55.640;37.532;2023-03-23T02:44:36;98430.84;;;6.75;54.25
43298;BME280;28892;55.640;37.532;2023-03-23T02:47:07;98432.50;;;6.76;54.19
43298;BME280;28892;55.640;37.532;2023-03-23T02:49:36;98431.28;;;6.63;54.76
43298;BME280;28892;55.640;37.532;2023-03-23T02:52:10;98425.53;;;6.60;55.26
43298;BME280;28892;55.640;37.532;2023-03-23T02:54:40;98425.34;;;6.61;54.81
43298;BME280;28892;55.640;37.532;2023-03-23T02:57:08;98432.06;;;6.72;54.27
43298;BME280;28892;55.640;37.532;2023-03-23T02:59:39;98429.41;;;6.17;56.33
43298;BME280;28892;55.640;37.532;2023-03-23T03:02:16;98430.91;;;6.11;56.78
43298;BME280;28892;55.640;37.532;2023-03-23T03:04:52;98423.84;;;6.12;56.79
43298;BME280;28892;55.640;37.532;2023-03-23T03:07:35;98426.78;;;5.69;58.31
43298;BME280;28892;55.640;37.532;2023-03-23T03:18:21;98416.00;;;5.55;58.92
43298;BME280;28892;55.640;37.532;2023-03-23T03:20:58;98422.63;;;5.83;58.19
43298;BME280;28892;55.640;37.532;2023-03-23T03:23:31;98410.13;;;5.85;57.99
43298;BME280;28892;55.640;37.532;2023-03-23T03:26:02;98406.47;;;5.46;59.13
43298;BME280;28892;55.640;37.532;2023-03-23T03:28:47;98405.16;;;5.58;58.59
43298;BME280;28892;55.640;37.532;2023-03-23T03:31:19;98411.19;;;5.67;58.42
43298;BME280;28892;55.640;37.532;2023-03-23T03:33:46;98407.72;;;5.67;58.62
43298;BME280;28892;55.640;37.532;2023-03-23T03:36:18;98421.59;;;6.00;57.99
43298;BME280;28892;55.640;37.532;2023-03-23T03:38:50;98411.22;;;6.07;57.79
43298;BME280;28892;55.640;37.532;2023-03-23T03:41:18;98409.56;;;5.98;57.99
43298;BME280;28892;55.640;37.532;2023-03-23T03:43:45;98403.44;;;5.74;58.76
43298;BME280;28892;55.640;37.532;2023-03-23T03:46:11;98392.44;;;5.62;59.05
43298;BME280;28892;55.640;37.532;2023-03-23T03:48:38;98408.06;;;5.64;58.97
43298;BME280;28892;55.640;37.532;2023-03-23T03:51:04;98415.63;;;4.94;61.73
43298;BME280;28892;55.640;37.532;2023-03-23T03:53:33;98412.63;;;5.22;60.92
43298;BME280;28892;55.640;37.532;2023-03-23T03:56:00;98383.78;;;4.80;62.68
43298;BME280;28892;55.640;37.532;2023-03-23T03:58:33;98404.03;;;5.44;61.07
43298;BME280;28892;55.640;37.532;2023-03-23T04:01:21;98408.03;;;5.32;60.82
43298;BME280;28892;55.640;37.532;2023-03-23T04:03:51;98405.41;;;5.24;61.05
43298;BME280;28892;55.640;37.532;2023-03-23T04:06:31;98384.53;;;5.22;61.12
43298;BME280;28892;55.640;37.532;2023-03-23T04:08:59;98389.25;;;5.43;60.39
43298;BME280;28892;55.640;37.532;2023-03-23T04:11:27;98397.41;;;5.65;59.93
43298;BME280;28892;55.640;37.532;2023-03-23T04:14:01;98386.63;;;5.35;60.94
43298;BME280;28892;55.640;37.532;2023-03-23T04:16:38;98386.28;;;5.47;60.49
43298;BME280;28892;55.640;37.532;2023-03-23T04:19:06;98398.56;;;5.54;60.33
43298;BME280;28892;55.640;37.532;2023-03-23T04:21:32;98391.91;;;5.27;61.63
43298;BME280;28892;55.640;37.532;2023-03-23T04:23:59;98382.72;;;5.71;60.36
43298;BME280;28892;55.640;37.532;2023-03-23T04:26:27;98374.28;;;5.44;61.28
43298;BME280;28892;55.640;37.532;2023-03-23T04:28:58;98385.78;;;5.43;61.45
43298;BME280;28892;55.640;37.532;2023-03-23T04:31:30;98372.13;;;4.74;63.99
43298;BME280;28892;55.640;37.532;2023-03-23T04:34:08;98383.91;;;5.03;62.67
43298;BME280;28892;55.640;37.532;2023-03-23T04:36:40;98375.84;;;5.05;62.90
43298;BME280;28892;55.640;37.532;2023-03-23T04:39:13;98385.00;;;5.26;63.03
43298;BME280;28892;55.640;37.532;2023-03-23T04:41:42;98379.13;;;5.07;63.27
43298;BME280;28892;55.640;37.532;2023-03-23T04:44:44;98380.78;;;5.56;61.30
43298;BME280;28892;55.640;37.532;2023-03-23T04:47:23;98378.97;;;5.65;61.11
43298;BME280;28892;55.640;37.532;2023-03-23T04:49:56;98390.00;;;6.00;60.34
43298;BME280;28892;55.640;37.532;2023-03-23T04:52:28;98370.53;;;6.33;59.45
43298;BME280;28892;55.640;37.532;2023-03-23T04:55:00;98383.09;;;6.54;58.80
43298;BME280;28892;55.640;37.532;2023-03-23T04:57:28;98379.44;;;6.79;58.13
43298;BME280;28892;55.640;37.532;2023-03-23T05:00:13;98370.19;;;6.98;57.68
43298;BME280;28892;55.640;37.532;2023-03-23T05:02:49;98371.78;;;7.22;57.40
43298;BME280;28892;55.640;37.532;2023-03-23T05:05:21;98374.69;;;7.43;56.83
43298;BME280;28892;55.640;37.532;2023-03-23T05:07:48;98386.41;;;7.55;56.13
43298;BME280;28892;55.640;37.532;2023-03-23T05:10:17;98386.31;;;7.48;55.98
43298;BME280;28892;55.640;37.532;2023-03-23T05:12:44;98391.97;;;7.45;55.84
43298;BME280;28892;55.640;37.532;2023-03-23T05:15:16;98388.41;;;7.53;56.12
43298;BME280;28892;55.640;37.532;2023-03-23T05:17:44;98388.31;;;7.61;55.99
43298;BME280;28892;55.640;37.532;2023-03-23T05:20:15;98398.59;;;7.71;55.83
43298;BME280;28892;55.640;37.532;2023-03-23T05:22:47;98390.66;;;7.86;55.54
43298;BME280;28892;55.640;37.532;2023-03-23T05:25:18;98408.06;;;8.17;55.03
43298;BME280;28892;55.640;37.532;2023-03-23T05:27:49;98400.19;;;8.39;54.56
43298;BME280;28892;55.640;37.532;2023-03-23T05:30:48;98400.97;;;8.39;54.36
43298;BME280;28892;55.640;37.532;2023-03-23T05:33:17;98403.09;;;8.66;54.07
43298;BME280;28892;55.640;37.532;2023-03-23T05:35:57;98401.06;;;8.90;53.34
43298;BME280;28892;55.640;37.532;2023-03-23T05:38:27;98382.88;;;9.08;52.87
43298;BME280;28892;55.640;37.532;2023-03-23T05:40:57;98386.91;;;9.33;52.28
43298;BME280;28892;55.640;37.532;2023-03-23T05:43:28;98379.41;;;9.36;51.93
43298;BME280;28892;55.640;37.532;2023-03-23T05:46:27;98389.38;;;9.76;51.29
43298;BME280;28892;55.640;37.532;2023-03-23T05:49:00;98387.75;;;9.82;51.13
43298;BME280;28892;55.640;37.532;2023-03-23T05:51:33;98391.66;;;9.44;51.25
43298;BME280;28892;55.640;37.532;2023-03-23T05:53:59;98395.56;;;8.91;52.08
43298;BME280;28892;55.640;37.532;2023-03-23T05:56:25;98408.78;;;8.91;53.18
43298;BME280;28892;55.640;37.532;2023-03-23T05:59:10;98404.94;;;8.65;54.03
43298;BME280;28892;55.640;37.532;2023-03-23T06:01:38;98398.06;;;9.28;52.47
43298;BME280;28892;55.640;37.532;2023-03-23T06:04:04;98394.66;;;9.34;52.08
43298;BME280;28892;55.640;37.532;2023-03-23T06:06:40;98394.63;;;9.70;51.23
43298;BME280;28892;55.640;37.532;2023-03-23T06:09:10;98392.09;;;9.97;50.81
43298;BME280;28892;55.640;37.532;2023-03-23T06:12:03;98385.91;;;9.34;51.70
43298;BME280;28892;55.640;37.532;2023-03-23T06:15:06;98385.84;;;8.70;53.38
43298;BME280;28892;55.640;37.532;2023-03-23T06:18:01;98390.50;;;9.18;53.41
43298;BME280;28892;55.640;37.532;2023-03-23T06:20:44;98391.31;;;9.54;51.90
43298;BME280;28892;55.640;37.532;2023-03-23T06:23:34;98384.09;;;9.83;51.79
43298;BME280;28892;55.640;37.532;2023-03-23T06:26:08;98391.25;;;9.83;51.01
43298;BME280;28892;55.640;37.532;2023-03-23T06:28:40;98377.03;;;9.48;52.35
43298;BME280;28892;55.640;37.532;2023-03-23T06:31:06;98379.59;;;9.77;51.12
43298;BME280;28892;55.640;37.532;2023-03-23T06:33:35;98388.00;;;9.45;51.61
43298;BME280;28892;55.640;37.532;2023-03-23T06:36:19;98393.63;;;9.29;51.78
43298;BME280;28892;55.640;37.532;2023-03-23T06:38:56;98371.44;;;9.78;51.86
43298;BME280;28892;55.640;37.532;2023-03-23T06:41:32;98382.47;;;9.82;50.46
43298;BME280;28892;55.640;37.532;2023-03-23T06:43:59;98378.28;;;10.08;50.42
43298;BME280;28892;55.640;37.532;2023-03-23T06:46:29;98385.22;;;10.09;49.90
43298;BME280;28892;55.640;37.532;2023-03-23T06:48:58;98383.78;;;10.00;49.78
43298;BME280;28892;55.640;37.532;2023-03-23T06:51:45;98382.47;;;10.51;50.29
43298;BME280;28892;55.640;37.532;2023-03-23T06:54:11;98370.06;;;10.58;49.44
43298;BME280;28892;55.640;37.532;2023-03-23T06:56:39;98376.78;;;10.74;49.18
43298;BME280;28892;55.640;37.532;2023-03-23T06:59:13;98361.88;;;10.87;48.87
43298;BME280;28892;55.640;37.532;2023-03-23T07:01:39;98364.94;;;10.97;48.49
43298;BME280;28892;55.640;37.532;2023-03-23T07:04:06;98376.16;;;10.72;49.04
43298;BME280;28892;55.640;37.532;2023-03-23T07:06:47;98322.34;;;9.27;51.91
43298;BME280;28892;55.640;37.532;2023-03-23T07:09:31;98369.06;;;9.90;50.98
43298;BME280;28892;55.640;37.532;2023-03-23T07:11:58;98364.56;;;10.73;49.24
43298;BME280;28892;55.640;37.532;2023-03-23T07:14:38;98374.94;;;10.95;48.92
43298;BME280;28892;55.640;37.532;2023-03-23T07:17:04;98366.38;;;10.66;48.51
43298;BME280;28892;55.640;37.532;2023-03-23T07:19:39;98361.25;;;10.78;49.01
43298;BME280;28892;55.640;37.532;2023-03-23T07:22:06;98363.09;;;11.04;48.66
43298;BME280;28892;55.640;37.532;2023-03-23T07:24:33;98366.16;;;10.95;48.16
43298;BME280;28892;55.640;37.532;2023-03-23T07:27:23;98358.59;;;10.78;48.56
43298;BME280;28892;55.640;37.532;2023-03-23T07:30:13;98351.25;;;11.07;48.27
43298;BME280;28892;55.640;37.532;2023-03-23T07:32:43;98346.34;;;11.17;47.33
43298;BME280;28892;55.640;37.532;2023-03-23T07:35:09;98366.75;;;11.24;47.17
43298;BME280;28892;55.640;37.532;2023-03-23T07:37:58;98351.84;;;11.16;47.19
43298;BME280;28892;55.640;37.532;2023-03-23T07:40:28;98371.00;;;11.31;47.58
43298;BME280;28892;55.640;37.532;2023-03-23T07:43:02;98349.22;;;10.96;48.01
43298;BME280;28892;55.640;37.532;2023-03-23T07:46:02;98358.63;;;10.58;48.66
43298;BME280;28892;55.640;37.532;2023-03-23T07:49:30;98336.78;;;10.89;47.64
43298;BME280;28892;55.640;37.532;2023-03-23T07:56:10;98340.69;;;10.73;46.51
43298;BME280;28892;55.640;37.532;2023-03-23T07:59:29;98348.81;;;10.92;47.15
43298;BME280;28892;55.640;37.532;2023-03-23T08:01:58;98337.41;;;10.85;46.68
43298;BME280;28892;55.640;37.532;2023-03-23T08:04:34;98327.56;;;10.31;47.28
43298;BME280;28892;55.640;37.532;2023-03-23T08:07:08;98319.72;;;9.76;48.66
43298;BME280;28892;55.640;37.532;2023-03-23T08:10:05;98338.13;;;10.11;48.41
43298;BME280;28892;55.640;37.532;2023-03-23T08:12:56;98327.63;;;10.65;47.37
43298;BME280;28892;55.640;37.532;2023-03-23T08:16:01;98321.47;;;10.98;45.54
43298;BME280;28892;55.640;37.532;2023-03-23T08:19:07;98335.22;;;9.92;48.35
43298;BME280;28892;55.640;37.532;2023-03-23T08:21:35;98347.13;;;10.30;46.96
43298;BME280;28892;55.640;37.532;2023-03-23T08:24:22;98323.25;;;10.10;47.51
43298;BME280;28892;55.640;37.532;2023-03-23T08:27:12;98331.28;;;10.64;46.32
43298;BME280;28892;55.640;37.532;2023-03-23T08:30:07;98315.88;;;11.27;45.61
43298;BME280;28892;55.640;37.532;2023-03-23T08:32:43;98305.84;;;11.36;44.66
43298;BME280;28892;55.640;37.532;2023-03-23T08:35:44;98323.84;;;11.79;43.26
43298;BME280;28892;55.640;37.532;2023-03-23T08:38:31;98300.81;;;12.88;41.98
43298;BME280;28892;55.640;37.532;2023-03-23T08:41:21;98310.81;;;14.29;40.24
43298;BME280;28892;55.640;37.532;2023-03-23T08:44:08;98293.72;;;15.08;37.75
43298;BME280;28892;55.640;37.532;2023-03-23T08:47:21;98295.88;;;16.05;36.58
43298;BME280;28892;55.640;37.532;2023-03-23T08:50:15;98295.63;;;16.06;36.31
43298;BME280;28892;55.640;37.532;2023-03-23T08:53:01;98282.00;;;16.25;36.49
43298;BME280;28892;55.640;37.532;2023-03-23T08:56:08;98288.28;;;16.48;36.07
43298;BME280;28892;55.640;37.532;2023-03-23T08:58:52;98281.09;;;17.27;34.71
43298;BME280;28892;55.640;37.532;2023-03-23T09:01:32;98277.88;;;17.48;34.32
43298;BME280;28892;55.640;37.532;2023-03-23T09:04:42;98268.97;;;16.46;34.42
43298;BME280;28892;55.640;37.532;2023-03-23T09:07:24;98273.28;;;15.84;36.97
43298;BME280;28892;55.640;37.532;2023-03-23T09:09:58;98238.22;;;16.48;35.24
43298;BME280;28892;55.640;37.532;2023-03-23T09:12:29;98251.06;;;17.25;35.21
43298;BME280;28892;55.640;37.532;2023-03-23T09:14:55;98251.59;;;17.72;34.27
43298;BME280;28892;55.640;37.532;2023-03-23T09:20:04;98260.63;;;16.59;35.57
43298;BME280;28892;55.640;37.532;2023-03-23T09:22:43;98266.75;;;15.21;35.92
43298;BME280;28892;55.640;37.532;2023-03-23T09:25:11;98245.63;;;14.36;37.64
43298;BME280;28892;55.640;37.532;2023-03-23T09:27:41;98250.38;;;13.80;38.47
43298;BME280;28892;55.640;37.532;2023-03-23T09:33:05;98235.72;;;15.20;37.47
43298;BME280;28892;55.640;37.532;2023-03-23T09:35:34;98243.59;;;14.74;36.53
43298;BME280;28892;55.640;37.532;2023-03-23T09:38:02;98262.34;;;13.40;39.44
43298;BME280;28892;55.640;37.532;2023-03-23T09:44:07;98241.19;;;15.84;37.82
43298;BME280;28892;55.640;37.532;2023-03-23T09:52:04;98202.00;;;16.80;35.10
43298;BME280;28892;55.640;37.532;2023-03-23T09:54:35;98221.09;;;15.52;34.94
43298;BME280;28892;55.640;37.532;2023-03-23T09:57:03;98195.34;;;15.05;36.75
43298;BME280;28892;55.640;37.532;2023-03-23T09:59:49;98186.16;;;15.88;35.09
43298;BME280;28892;55.640;37.532;2023-03-23T10:02:32;98189.03;;;16.72;35.31
43298;BME280;28892;55.640;37.532;2023-03-23T10:08:25;98187.47;;;16.76;33.02
43298;BME280;28892;55.640;37.532;2023-03-23T10:13:43;98179.94;;;15.82;34.47
43298;BME280;28892;55.640;37.532;2023-03-23T10:16:19;98182.25;;;15.32;35.32
43298;BME280;28892;55.640;37.532;2023-03-23T10:18:54;98175.56;;;15.18;36.39
43298;BME280;28892;55.640;37.532;2023-03-23T10:21:23;98162.69;;;16.64;35.13
43298;BME280;28892;55.640;37.532;2023-03-23T10:23:58;98177.16;;;17.84;33.75
43298;BME280;28892;55.640;37.532;2023-03-23T10:26:29;98184.38;;;17.84;32.01
43298;BME280;28892;55.640;37.532;2023-03-23T10:31:47;98166.84;;;16.15;34.18
43298;BME280;28892;55.640;37.532;2023-03-23T10:34:58;98165.72;;;17.39;32.58
43298;BME280;28892;55.640;37.532;2023-03-23T10:37:37;98172.75;;;16.17;33.81
43298;BME280;28892;55.640;37.532;2023-03-23T10:40:11;98151.34;;;15.07;36.19
43298;BME280;28892;55.640;37.532;2023-03-23T10:42:40;98156.75;;;14.84;36.36
43298;BME280;28892;55.640;37.532;2023-03-23T10:47:43;98163.44;;;16.59;34.83
43298;BME280;28892;55.640;37.532;2023-03-23T10:50:14;98166.63;;;17.50;33.66
43298;BME280;28892;55.640;37.532;2023-03-23T10:52:44;98165.03;;;16.60;33.11
43298;BME280;28892;55.640;37.532;2023-03-23T10:55:16;98144.72;;;17.31;33.12
43298;BME280;28892;55.640;37.532;2023-03-23T10:57:47;98168.44;;;18.37;32.50
43298;BME280;28892;55.640;37.532;2023-03-23T11:03:20;98164.53;;;16.80;33.47
43298;BME280;28892;55.640;37.532;2023-03-23T11:05:43;98147.28;;;16.31;34.27
43298;BME280;28892;55.640;37.532;2023-03-23T11:08:12;98161.34;;;17.60;32.58
43298;BME280;28892;55.640;37.532;2023-03-23T11:10:49;98159.06;;;18.45;31.71
43298;BME280;28892;55.640;37.532;2023-03-23T11:13:47;98150.84;;;18.67;30.70
43298;BME280;28892;55.640;37.532;2023-03-23T11:16:33;98168.44;;;18.37;30.50
43298;BME280;28892;55.640;37.532;2023-03-23T11:19:21;98161.47;;;17.43;32.77
43298;BME280;28892;55.640;37.532;2023-03-23T11:21:52;98167.06;;;18.02;31.89
43298;BME280;28892;55.640;37.532;2023-03-23T11:24:25;98144.59;;;18.46;31.73
43298;BME280;28892;55.640;37.532;2023-03-23T11:26:56;98151.09;;;19.24;31.07
43298;BME280;28892;55.640;37.532;2023-03-23T11:29:47;98166.56;;;18.96;29.94
43298;BME280;28892;55.640;37.532;2023-03-23T11:32:21;98160.94;;;18.98;30.26
43298;BME280;28892;55.640;37.532;2023-03-23T11:35:28;98147.88;;;18.64;29.99
43298;BME280;28892;55.640;37.532;2023-03-23T11:37:58;98152.97;;;17.52;31.36
43298;BME280;28892;55.640;37.532;2023-03-23T11:40:27;98158.44;;;17.95;31.20
43298;BME280;28892;55.640;37.532;2023-03-23T11:43:09;98153.22;;;18.10;31.29
43298;BME280;28892;55.640;37.532;2023-03-23T11:46:05;98167.78;;;18.20;30.88
43298;BME280;28892;55.640;37.532;2023-03-23T11:48:40;98159.59;;;16.32;33.45
43298;BME280;28892;55.640;37.532;2023-03-23T11:51:35;98171.53;;;16.25;34.22
43298;BME280;28892;55.640;37.532;2023-03-23T11:54:57;98160.06;;;16.69;33.38
43298;BME280;28892;55.640;37.532;2023-03-23T11:57:46;98164.53;;;16.63;33.44
43298;BME280;28892;55.640;37.532;2023-03-23T12:00:22;98159.66;;;15.86;34.04
43298;BME280;28892;55.640;37.532;2023-03-23T12:03:18;98170.34;;;15.86;34.60
43298;BME280;28892;55.640;37.532;2023-03-23T12:06:13;98157.41;;;15.32;35.67
43298;BME280;28892;55.640;37.532;2023-03-23T12:48:49;98115.50;;;14.38;38.14
43298;BME280;28892;55.640;37.532;2023-03-23T12:55:49;98126.47;;;14.66;37.43
43298;BME280;28892;55.640;37.532;2023-03-23T13:03:44;98122.41;;;13.44;39.25
43298;BME280;28892;55.640;37.532;2023-03-23T13:10:51;98107.75;;;13.35;39.93
43298;BME280;28892;55.640;37.532;2023-03-23T13:39:23;98099.75;;;14.37;38.30
43298;BME280;28892;55.640;37.532;2023-03-23T13:55:39;98092.00;;;14.11;39.36
43298;BME280;28892;55.640;37.532;2023-03-23T13:59:32;98093.72;;;13.70;39.61
43298;BME280;28892;55.640;37.532;2023-03-23T14:02:31;98098.34;;;13.87;39.91
43298;BME280;28892;55.640;37.532;2023-03-23T14:08:00;98085.16;;;13.68;40.26
43298;BME280;28892;55.640;37.532;2023-03-23T14:10:49;98090.59;;;13.61;40.38
43298;BME280;28892;55.640;37.532;2023-03-23T14:14:07;98091.63;;;13.72;40.57
43298;BME280;28892;55.640;37.532;2023-03-23T14:16:42;98054.41;;;13.11;41.46
43298;BME280;28892;55.640;37.532;2023-03-23T14:25:33;98052.06;;;13.33;41.32
43298;BME280;28892;55.640;37.532;2023-03-23T14:27:59;98062.94;;;13.32;41.42
43298;BME280;28892;55.640;37.532;2023-03-23T14:30:35;98075.53;;;12.63;42.76
43298;BME280;28892;55.640;37.532;2023-03-23T14:33:37;98059.13;;;12.66;42.75
43298;BME280;28892;55.640;37.532;2023-03-23T14:36:07;98058.72;;;12.81;42.55
43298;BME280;28892;55.640;37.532;2023-03-23T14:38:34;98039.06;;;12.82;42.54
43298;BME280;28892;55.640;37.532;2023-03-23T14:41:11;98046.69;;;12.79;42.64
43298;BME280;28892;55.640;37.532;2023-03-23T14:43:41;98054.41;;;12.68;42.99
43298;BME280;28892;55.640;37.532;2023-03-23T14:46:16;98046.41;;;12.68;42.83
43298;BME280;28892;55.640;37.532;2023-03-23T14:48:42;98039.25;;;12.50;43.15
43298;BME280;28892;55.640;37.532;2023-03-23T14:51:18;98020.16;;;12.23;43.87
43298;BME280;28892;55.640;37.532;2023-03-23T14:53:44;98031.81;;;12.22;44.08
43298;BME280;28892;55.640;37.532;2023-03-23T14:56:34;98044.59;;;12.13;44.22
43298;BME280;28892;55.640;37.532;2023-03-23T14:59:05;98046.31;;;12.26;44.21
43298;BME280;28892;55.640;37.532;2023-03-23T15:01:37;98032.72;;;12.15;44.33
43298;BME280;28892;55.640;37.532;2023-03-23T15:04:13;98026.22;;;11.16;46.48
43298;BME280;28892;55.640;37.532;2023-03-23T15:06:50;98046.31;;;11.31;46.80
43298;BME280;28892;55.640;37.532;2023-03-23T15:09:26;98042.41;;;11.34;46.20
43298;BME280;28892;55.640;37.532;2023-03-23T15:11:59;98053.81;;;11.41;46.36
43298;BME280;28892;55.640;37.532;2023-03-23T15:14:29;98049.25;;;11.73;45.48
43298;BME280;28892;55.640;37.532;2023-03-23T15:16:57;98041.16;;;11.87;45.27
43298;BME280;28892;55.640;37.532;2023-03-23T15:19:33;98047.00;;;11.96;45.00
43298;BME280;28892;55.640;37.532;2023-03-23T15:22:21;98029.56;;;12.00;44.92
43298;BME280;28892;55.640;37.532;2023-03-23T15:24:47;98036.28;;;11.58;45.69
43298;BME280;28892;55.640;37.532;2023-03-23T15:27:22;98026.50;;;11.34;46.39
43298;BME280;28892;55.640;37.532;2023-03-23T15:29:54;98039.13;;;11.06;46.83
43298;BME280;28892;55.640;37.532;2023-03-23T15:32:30;98038.59;;;11.29;46.60
43298;BME280;28892;55.640;37.532;2023-03-23T15:35:10;98030.06;;;11.46;46.14
43298;BME280;28892;55.640;37.532;2023-03-23T15:37:42;98041.19;;;11.80;45.43
43298;BME280;28892;55.640;37.532;2023-03-23T15:40:20;98034.88;;;12.00;44.99
43298;BME280;28892;55.640;37.532;2023-03-23T15:42:48;98026.91;;;11.81;45.19
43298;BME280;28892;55.640;37.532;2023-03-23T15:45:26;98016.81;;;11.90;44.88
43298;BME280;28892;55.640;37.532;2023-03-23T15:47:53;98025.13;;;11.75;45.24
43298;BME280;28892;55.640;37.532;2023-03-23T15:52:56;98025.72;;;11.26;46.42
43298;BME280;28892;55.640;37.532;2023-03-23T15:55:36;98016.94;;;11.00;46.85
43298;BME280;28892;55.640;37.532;2023-03-23T15:58:09;98009.78;;;11.33;46.22
43298;BME280;28892;55.640;37.532;2023-03-23T16:00:36;98014.41;;;11.38;46.03
43298;BME280;28892;55.640;37.532;2023-03-23T16:03:05;98030.53;;;10.79;47.35
43298;BME280;28892;55.640;37.532;2023-03-23T16:05:32;98024.78;;;10.43;48.51
43298;BME280;28892;55.640;37.532;2023-03-23T16:07:59;98008.47;;;10.85;47.60
43298;BME280;28892;55.640;37.532;2023-03-23T16:10:26;98015.38;;;11.18;46.64
43298;BME280;28892;55.640;37.532;2023-03-23T16:12:52;98019.06;;;11.42;45.82
43298;BME280;28892;55.640;37.532;2023-03-23T16:15:18;98013.47;;;11.25;46.08
43298;BME280;28892;55.640;37.532;2023-03-23T16:17:44;98002.94;;;11.44;45.67
43298;BME280;28892;55.640;37.532;2023-03-23T16:20:34;98006.22;;;11.65;45.27